createdAt,value
2022-11-22T00:00:00.774Z,938.4900
2022-11-22T00:00:11.851Z,938.4900
2022-11-22T00:00:22.893Z,938.4900
2022-11-22T00:00:33.953Z,938.4700
2022-11-22T00:00:45.014Z,938.4700
2022-11-22T00:00:56.080Z,938.4700
2022-11-22T00:01:07.134Z,938.4700
2022-11-22T00:01:18.219Z,938.4500
2022-11-22T00:01:29.273Z,938.4500
2022-11-22T00:01:40.388Z,938.4500
2022-11-22T00:01:51.457Z,938.4700
2022-11-22T00:02:02.613Z,938.4700
2022-11-22T00:02:13.810Z,938.4700
2022-11-22T00:02:24.945Z,938.4900
2022-11-22T00:02:36.117Z,938.4900
2022-11-22T00:02:47.227Z,938.4900
2022-11-22T00:02:58.284Z,938.4900
2022-11-22T00:03:09.363Z,938.4700
2022-11-22T00:03:20.466Z,938.4500
2022-11-22T00:03:31.578Z,938.4700
2022-11-22T00:03:42.624Z,938.4700
2022-11-22T00:03:53.683Z,938.4500
2022-11-22T00:04:04.755Z,938.4300
2022-11-22T00:04:15.837Z,938.4300
2022-11-22T00:04:26.904Z,938.4300
2022-11-22T00:04:37.963Z,938.4500
2022-11-22T00:04:49.035Z,938.4300
2022-11-22T00:05:00.149Z,938.4300
2022-11-22T00:05:11.183Z,938.4300
2022-11-22T00:05:22.280Z,938.4100
2022-11-22T00:05:33.346Z,938.4300
2022-11-22T00:05:44.416Z,938.4300
2022-11-22T00:05:55.463Z,938.4100
2022-11-22T00:06:06.514Z,938.3900
2022-11-22T00:06:17.593Z,938.4100
2022-11-22T00:06:28.654Z,938.3900
2022-11-22T00:06:39.715Z,938.4100
2022-11-22T00:06:50.773Z,938.4100
2022-11-22T00:07:01.887Z,938.3700
2022-11-22T00:07:12.948Z,938.3700
2022-11-22T00:07:24.067Z,938.3900
2022-11-22T00:07:35.173Z,938.3700
2022-11-22T00:07:46.357Z,938.3900
2022-11-22T00:07:57.473Z,938.3900
2022-11-22T00:08:08.536Z,938.4100
2022-11-22T00:08:19.597Z,938.3900
2022-11-22T00:08:30.694Z,938.3900
2022-11-22T00:08:41.753Z,938.4100
2022-11-22T00:08:52.816Z,938.4100
2022-11-22T00:09:03.893Z,938.4300
2022-11-22T00:09:14.998Z,938.3700
2022-11-22T00:09:26.039Z,938.3700
2022-11-22T00:09:37.104Z,938.4300
2022-11-22T00:09:48.168Z,938.4100
2022-11-22T00:09:59.229Z,938.3900
2022-11-22T00:10:10.274Z,938.3700
2022-11-22T00:10:21.339Z,938.3700
2022-11-22T00:10:32.373Z,938.3900
2022-11-22T00:10:43.436Z,938.3700
2022-11-22T00:10:54.521Z,938.3700
2022-11-22T00:11:05.581Z,938.3900
2022-11-22T00:11:16.654Z,938.3500
2022-11-22T00:11:27.713Z,938.3500
2022-11-22T00:11:38.767Z,938.3700
2022-11-22T00:11:49.831Z,938.3700
2022-11-22T00:12:00.894Z,938.3500
2022-11-22T00:12:11.989Z,938.3700
2022-11-22T00:12:23.123Z,938.3700
2022-11-22T00:12:34.157Z,938.3500
2022-11-22T00:12:45.233Z,938.3300
2022-11-22T00:12:56.275Z,938.3500
2022-11-22T00:13:07.334Z,938.3500
2022-11-22T00:13:18.398Z,938.3500
2022-11-22T00:13:29.473Z,938.3500
2022-11-22T00:13:40.567Z,938.3500
2022-11-22T00:13:51.647Z,938.3500
2022-11-22T00:14:02.761Z,938.3300
2022-11-22T00:14:13.785Z,938.3300
2022-11-22T00:14:24.840Z,938.3500
2022-11-22T00:14:35.940Z,938.3500
2022-11-22T00:14:47.003Z,938.3100
2022-11-22T00:14:58.081Z,938.3300
2022-11-22T00:15:09.188Z,938.3500
2022-11-22T00:15:20.283Z,938.3500
2022-11-22T00:15:31.346Z,938.3500
2022-11-22T00:15:42.423Z,938.3500
2022-11-22T00:15:53.498Z,938.3300
2022-11-22T00:16:04.573Z,938.3300
2022-11-22T00:16:15.631Z,938.3300
2022-11-22T00:16:26.687Z,938.3300
2022-11-22T00:16:37.770Z,938.3700
2022-11-22T00:16:48.854Z,938.3500
2022-11-22T00:16:59.923Z,938.3500
2022-11-22T00:17:10.981Z,938.3300
2022-11-22T00:17:22.053Z,938.3700
2022-11-22T00:17:33.097Z,938.3500
2022-11-22T00:17:44.164Z,938.3300
2022-11-22T00:17:55.237Z,938.3500
2022-11-22T00:18:06.316Z,938.3500
2022-11-22T00:18:17.401Z,938.3300
2022-11-22T00:18:28.467Z,938.3500
2022-11-22T00:18:39.543Z,938.3500
2022-11-22T00:18:50.631Z,938.3500
2022-11-22T00:19:01.695Z,938.3500
2022-11-22T00:19:12.746Z,938.3500
2022-11-22T00:19:23.813Z,938.3500
2022-11-22T00:19:34.891Z,938.3500
2022-11-22T00:19:45.936Z,938.3500
2022-11-22T00:19:57.001Z,938.3500
2022-11-22T00:20:08.051Z,938.3300
2022-11-22T00:20:19.143Z,938.3300
2022-11-22T00:20:30.198Z,938.3500
2022-11-22T00:20:41.263Z,938.3300
2022-11-22T00:20:52.336Z,938.3300
2022-11-22T00:21:03.403Z,938.3100
2022-11-22T00:21:14.467Z,938.3300
2022-11-22T00:21:25.553Z,938.3300
2022-11-22T00:21:36.622Z,938.3300
2022-11-22T00:21:47.694Z,938.3300
2022-11-22T00:21:58.736Z,938.3300
2022-11-22T00:22:09.810Z,938.3300
2022-11-22T00:22:20.887Z,938.3300
2022-11-22T00:22:31.963Z,938.3300
2022-11-22T00:22:44.975Z,938.3100
2022-11-22T00:22:56.373Z,938.3100
2022-11-22T00:23:07.456Z,938.2900
2022-11-22T00:23:18.543Z,938.3100
2022-11-22T00:23:29.603Z,938.3100
2022-11-22T00:23:40.668Z,938.2900
2022-11-22T00:23:51.769Z,938.3100
2022-11-22T00:24:02.834Z,938.3100
2022-11-22T00:24:13.887Z,938.3100
2022-11-22T00:24:24.989Z,938.3100
2022-11-22T00:24:36.057Z,938.3100
2022-11-22T00:24:47.133Z,938.3100
2022-11-22T00:24:58.187Z,938.3300
2022-11-22T00:25:09.243Z,938.3300
2022-11-22T00:25:20.316Z,938.3300
2022-11-22T00:25:31.393Z,938.3300
2022-11-22T00:25:42.448Z,938.3100
2022-11-22T00:25:53.513Z,938.3100
2022-11-22T00:26:04.578Z,938.3100
2022-11-22T00:26:15.659Z,938.3300
2022-11-22T00:26:26.703Z,938.3300
2022-11-22T00:26:37.765Z,938.3300
2022-11-22T00:26:48.834Z,938.3100
2022-11-22T00:26:59.874Z,938.3100
2022-11-22T00:27:10.945Z,938.3100
2022-11-22T00:27:22.023Z,938.3300
2022-11-22T00:27:33.090Z,938.3300
2022-11-22T00:27:44.152Z,938.3300
2022-11-22T00:27:55.225Z,938.3100
2022-11-22T00:28:06.296Z,938.3300
2022-11-22T00:28:17.347Z,938.3300
2022-11-22T00:28:28.424Z,938.3300
2022-11-22T00:28:39.476Z,938.3500
2022-11-22T00:28:50.523Z,938.3500
2022-11-22T00:29:01.715Z,938.3700
2022-11-22T00:29:12.785Z,938.3500
2022-11-22T00:29:23.870Z,938.3500
2022-11-22T00:29:34.923Z,938.3500
2022-11-22T00:29:45.998Z,938.3500
2022-11-22T00:29:57.044Z,938.3500
2022-11-22T00:30:08.133Z,938.3700
2022-11-22T00:30:19.189Z,938.3700
2022-11-22T00:30:30.267Z,938.3700
2022-11-22T00:30:41.314Z,938.3700
2022-11-22T00:30:52.366Z,938.3700
2022-11-22T00:31:03.445Z,938.3700
2022-11-22T00:31:14.477Z,938.3700
2022-11-22T00:31:25.544Z,938.3900
2022-11-22T00:31:36.598Z,938.3900
2022-11-22T00:31:47.657Z,938.3700
2022-11-22T00:31:58.746Z,938.3900
2022-11-22T00:32:09.817Z,938.3700
2022-11-22T00:32:20.874Z,938.3700
2022-11-22T00:32:31.998Z,938.3700
2022-11-22T00:32:43.059Z,938.3700
2022-11-22T00:32:54.103Z,938.3700
2022-11-22T00:33:05.164Z,938.3700
2022-11-22T00:33:16.253Z,938.3900
2022-11-22T00:33:27.325Z,938.3700
2022-11-22T00:33:38.406Z,938.3700
2022-11-22T00:33:49.491Z,938.3700
2022-11-22T00:34:00.545Z,938.3700
2022-11-22T00:34:11.637Z,938.3900
2022-11-22T00:34:22.702Z,938.3900
2022-11-22T00:34:33.774Z,938.4100
2022-11-22T00:34:44.823Z,938.4100
2022-11-22T00:34:55.904Z,938.4100
2022-11-22T00:35:06.983Z,938.4100
2022-11-22T00:35:18.035Z,938.3900
2022-11-22T00:35:29.119Z,938.3900
2022-11-22T00:35:40.184Z,938.3900
2022-11-22T00:35:51.233Z,938.4100
2022-11-22T00:36:02.273Z,938.4100
2022-11-22T00:36:13.342Z,938.4300
2022-11-22T00:36:24.382Z,938.4100
2022-11-22T00:36:35.465Z,938.4100
2022-11-22T00:36:46.540Z,938.3900
2022-11-22T00:36:57.633Z,938.4300
2022-11-22T00:37:08.706Z,938.4100
2022-11-22T00:37:19.766Z,938.4100
2022-11-22T00:37:30.830Z,938.4100
2022-11-22T00:37:42.053Z,938.4300
2022-11-22T00:37:53.127Z,938.4100
2022-11-22T00:38:04.187Z,938.4100
2022-11-22T00:38:15.271Z,938.4300
2022-11-22T00:38:26.346Z,938.4300
2022-11-22T00:38:37.406Z,938.4100
2022-11-22T00:38:48.473Z,938.4100
2022-11-22T00:38:59.551Z,938.4100
2022-11-22T00:39:10.623Z,938.3900
2022-11-22T00:39:21.697Z,938.4100
2022-11-22T00:39:32.971Z,938.3900
2022-11-22T00:39:44.402Z,938.3700
2022-11-22T00:39:55.473Z,938.3700
2022-11-22T00:40:06.530Z,938.3500
2022-11-22T00:40:17.593Z,938.3500
2022-11-22T00:40:28.664Z,938.3700
2022-11-22T00:40:39.720Z,938.3700
2022-11-22T00:40:50.777Z,938.3700
2022-11-22T00:41:01.843Z,938.3700
2022-11-22T00:41:12.904Z,938.3500
2022-11-22T00:41:23.964Z,938.3500
2022-11-22T00:41:35.042Z,938.3500
2022-11-22T00:41:46.107Z,938.3900
2022-11-22T00:41:57.170Z,938.3900
2022-11-22T00:42:08.249Z,938.3700
2022-11-22T00:42:19.315Z,938.3900
2022-11-22T00:42:30.386Z,938.3300
2022-11-22T00:42:41.463Z,938.3300
2022-11-22T00:42:52.496Z,938.3700
2022-11-22T00:43:03.577Z,938.3700
2022-11-22T00:43:14.667Z,938.3700
2022-11-22T00:43:25.734Z,938.3700
2022-11-22T00:43:36.824Z,938.3900
2022-11-22T00:43:47.884Z,938.3700
2022-11-22T00:43:58.964Z,938.3700
2022-11-22T00:44:10.027Z,938.3700
2022-11-22T00:44:21.102Z,938.3900
2022-11-22T00:44:32.212Z,938.3300
2022-11-22T00:44:43.254Z,938.3500
2022-11-22T00:44:54.309Z,938.3300
2022-11-22T00:45:05.353Z,938.3500
2022-11-22T00:45:16.431Z,938.3500
2022-11-22T00:45:27.484Z,938.3500
2022-11-22T00:45:38.546Z,938.3500
2022-11-22T00:45:49.622Z,938.3700
2022-11-22T00:46:00.666Z,938.3700
2022-11-22T00:46:11.744Z,938.3700
2022-11-22T00:46:22.797Z,938.3900
2022-11-22T00:46:33.875Z,938.3900
2022-11-22T00:46:45.146Z,938.3900
2022-11-22T00:46:56.216Z,938.3700
2022-11-22T00:47:07.294Z,938.3900
2022-11-22T00:47:18.354Z,938.4100
2022-11-22T00:47:29.393Z,938.4100
2022-11-22T00:47:40.457Z,938.4100
2022-11-22T00:47:51.539Z,938.4100
2022-11-22T00:48:02.610Z,938.4300
2022-11-22T00:48:13.671Z,938.4300
2022-11-22T00:48:24.750Z,938.4300
2022-11-22T00:48:35.820Z,938.4300
2022-11-22T00:48:46.878Z,938.4500
2022-11-22T00:48:57.946Z,938.4500
2022-11-22T00:49:09.024Z,938.4500
2022-11-22T00:49:20.080Z,938.4500
2022-11-22T00:49:31.503Z,938.4700
2022-11-22T00:49:43.112Z,938.4700
2022-11-22T00:49:54.174Z,938.4900
2022-11-22T00:50:05.241Z,938.4900
2022-11-22T00:50:16.517Z,938.4500
2022-11-22T00:50:27.587Z,938.4700
2022-11-22T00:50:38.663Z,938.4700
2022-11-22T00:50:49.712Z,938.4900
2022-11-22T00:51:00.781Z,938.4900
2022-11-22T00:51:11.847Z,938.4700
2022-11-22T00:51:22.919Z,938.4700
2022-11-22T00:51:33.993Z,938.4700
2022-11-22T00:51:45.063Z,938.4900
2022-11-22T00:51:56.139Z,938.5100
2022-11-22T00:52:07.207Z,938.4900
2022-11-22T00:52:18.267Z,938.4900
2022-11-22T00:52:29.343Z,938.4900
2022-11-22T00:52:40.406Z,938.5100
2022-11-22T00:52:51.463Z,938.4900
2022-11-22T00:53:02.517Z,938.4900
2022-11-22T00:53:13.592Z,938.4900
2022-11-22T00:53:24.637Z,938.4700
2022-11-22T00:53:35.713Z,938.4700
2022-11-22T00:53:46.776Z,938.5100
2022-11-22T00:53:57.843Z,938.5100
2022-11-22T00:54:08.918Z,938.5100
2022-11-22T00:54:19.983Z,938.5100
2022-11-22T00:54:31.066Z,938.4900
2022-11-22T00:54:42.159Z,938.4900
2022-11-22T00:54:55.126Z,938.4900
2022-11-22T00:55:06.612Z,938.4900
2022-11-22T00:55:17.676Z,938.4900
2022-11-22T00:55:28.754Z,938.4700
2022-11-22T00:55:39.831Z,938.4900
2022-11-22T00:55:50.902Z,938.5100
2022-11-22T00:56:01.957Z,938.4900
2022-11-22T00:56:13.025Z,938.5100
2022-11-22T00:56:24.101Z,938.5100
2022-11-22T00:56:35.164Z,938.5100
2022-11-22T00:56:46.231Z,938.5100
2022-11-22T00:56:57.318Z,938.5100
2022-11-22T00:57:08.387Z,938.4900
2022-11-22T00:57:19.443Z,938.5100
2022-11-22T00:57:30.507Z,938.5100
2022-11-22T00:57:41.576Z,938.5100
2022-11-22T00:57:52.663Z,938.5100
2022-11-22T00:58:03.725Z,938.5100
2022-11-22T00:58:14.809Z,938.5100
2022-11-22T00:58:25.873Z,938.5100
2022-11-22T00:58:36.936Z,938.4900
2022-11-22T00:58:48.003Z,938.5100
2022-11-22T00:58:59.057Z,938.5100
2022-11-22T00:59:10.116Z,938.5100
2022-11-22T00:59:21.198Z,938.5300
2022-11-22T00:59:32.533Z,938.5100
2022-11-22T00:59:43.756Z,938.5300
2022-11-22T00:59:54.853Z,938.5500
2022-11-22T01:00:05.923Z,938.5300
2022-11-22T01:00:17.004Z,938.5300
2022-11-22T01:00:28.082Z,938.5300
2022-11-22T01:00:39.168Z,938.5300
2022-11-22T01:00:56.075Z,938.5500
2022-11-22T01:01:07.195Z,938.5500
2022-11-22T01:01:18.426Z,938.5500
2022-11-22T01:01:29.637Z,938.5500
2022-11-22T01:01:40.836Z,938.5700
2022-11-22T01:01:51.941Z,938.5500
2022-11-22T01:02:02.996Z,938.5700
2022-11-22T01:02:14.073Z,938.5700
2022-11-22T01:02:25.136Z,938.5700
2022-11-22T01:02:36.190Z,938.5700
2022-11-22T01:02:47.273Z,938.5700
2022-11-22T01:02:58.359Z,938.5700
2022-11-22T01:03:09.436Z,938.5700
2022-11-22T01:03:20.516Z,938.5700
2022-11-22T01:03:31.591Z,938.5700
2022-11-22T01:03:42.679Z,938.5700
2022-11-22T01:03:53.736Z,938.6400
2022-11-22T01:04:04.805Z,938.6400
2022-11-22T01:04:15.887Z,938.6400
2022-11-22T01:04:26.975Z,938.6600
2022-11-22T01:04:38.046Z,938.6600
2022-11-22T01:04:49.113Z,938.6600
2022-11-22T01:05:00.256Z,938.6600
2022-11-22T01:05:11.333Z,938.6600
2022-11-22T01:05:22.387Z,938.6800
2022-11-22T01:05:33.474Z,938.6800
2022-11-22T01:05:44.537Z,938.6800
2022-11-22T01:05:55.623Z,938.6800
2022-11-22T01:06:06.683Z,938.6800
2022-11-22T01:06:17.754Z,938.7000
2022-11-22T01:06:28.826Z,938.7000
2022-11-22T01:06:39.892Z,938.6800
2022-11-22T01:06:50.946Z,938.6800
2022-11-22T01:07:02.150Z,938.6800
2022-11-22T01:07:13.244Z,938.7000
2022-11-22T01:07:24.398Z,938.7000
2022-11-22T01:07:35.495Z,938.7200
2022-11-22T01:07:46.614Z,938.7200
2022-11-22T01:07:57.673Z,938.7200
2022-11-22T01:08:08.726Z,938.7000
2022-11-22T01:08:19.810Z,938.7200
2022-11-22T01:08:30.877Z,938.7200
2022-11-22T01:08:41.961Z,938.7200
2022-11-22T01:08:53.037Z,938.7400
2022-11-22T01:09:04.114Z,938.7400
2022-11-22T01:09:15.185Z,938.7200
2022-11-22T01:09:26.255Z,938.7400
2022-11-22T01:09:37.315Z,938.7200
2022-11-22T01:09:48.409Z,938.7200
2022-11-22T01:09:59.437Z,938.7200
2022-11-22T01:10:10.542Z,938.7400
2022-11-22T01:10:21.617Z,938.7400
2022-11-22T01:10:32.707Z,938.7400
2022-11-22T01:10:43.790Z,938.7400
2022-11-22T01:10:54.827Z,938.7200
2022-11-22T01:11:05.917Z,938.7400
2022-11-22T01:11:16.964Z,938.7400
2022-11-22T01:11:28.016Z,938.7600
2022-11-22T01:11:39.084Z,938.7800
2022-11-22T01:11:50.144Z,938.7600
2022-11-22T01:12:01.216Z,938.7600
2022-11-22T01:12:12.257Z,938.7800
2022-11-22T01:12:23.323Z,938.7800
2022-11-22T01:12:34.400Z,938.8000
2022-11-22T01:12:45.473Z,938.8000
2022-11-22T01:12:56.521Z,938.8000
2022-11-22T01:13:07.562Z,938.8000
2022-11-22T01:13:18.628Z,938.8000
2022-11-22T01:13:29.673Z,938.8000
2022-11-22T01:13:40.737Z,938.8000
2022-11-22T01:13:51.894Z,938.8000
2022-11-22T01:14:02.956Z,938.8200
2022-11-22T01:14:14.024Z,938.8600
2022-11-22T01:14:25.082Z,938.8400
2022-11-22T01:14:36.156Z,938.8400
2022-11-22T01:14:47.216Z,938.8400
2022-11-22T01:14:58.273Z,938.8600
2022-11-22T01:15:09.334Z,938.8600
2022-11-22T01:15:20.424Z,938.8800
2022-11-22T01:15:31.503Z,938.8800
2022-11-22T01:15:42.590Z,938.9000
2022-11-22T01:15:53.617Z,938.9200
2022-11-22T01:16:04.706Z,938.9200
2022-11-22T01:16:15.775Z,938.9200
2022-11-22T01:16:26.837Z,938.9000
2022-11-22T01:16:37.909Z,938.9200
2022-11-22T01:16:48.994Z,938.9200
2022-11-22T01:17:00.033Z,938.9400
2022-11-22T01:17:11.075Z,938.9600
2022-11-22T01:17:22.219Z,938.9600
2022-11-22T01:17:33.256Z,938.9600
2022-11-22T01:17:44.347Z,938.9800
2022-11-22T01:17:55.451Z,939.0000
2022-11-22T01:18:06.487Z,938.9800
2022-11-22T01:18:17.564Z,939.0000
2022-11-22T01:18:28.637Z,939.0200
2022-11-22T01:18:39.713Z,938.9600
2022-11-22T01:18:50.776Z,938.9600
2022-11-22T01:19:01.843Z,938.9600
2022-11-22T01:19:12.902Z,939.0200
2022-11-22T01:19:23.968Z,939.0200
2022-11-22T01:19:35.037Z,939.0000
2022-11-22T01:19:46.102Z,939.0200
2022-11-22T01:19:57.158Z,939.0000
2022-11-22T01:20:08.237Z,939.0000
2022-11-22T01:20:19.313Z,939.0200
2022-11-22T01:20:30.384Z,939.0200
2022-11-22T01:20:41.438Z,939.0400
2022-11-22T01:20:52.529Z,939.0200
2022-11-22T01:21:03.577Z,939.0200
2022-11-22T01:21:14.650Z,939.0200
2022-11-22T01:21:25.703Z,939.0400
2022-11-22T01:21:36.744Z,939.0400
2022-11-22T01:21:47.797Z,939.0400
2022-11-22T01:21:58.864Z,939.0400
2022-11-22T01:22:09.945Z,939.0200
2022-11-22T01:22:21.001Z,939.0400
2022-11-22T01:22:32.041Z,939.0400
2022-11-22T01:22:43.106Z,939.0200
2022-11-22T01:22:54.155Z,939.0400
2022-11-22T01:23:05.233Z,939.0400
2022-11-22T01:23:16.296Z,939.0200
2022-11-22T01:23:27.363Z,939.0400
2022-11-22T01:23:38.451Z,939.0600
2022-11-22T01:23:49.483Z,939.0400
2022-11-22T01:24:00.536Z,939.0400
2022-11-22T01:24:11.651Z,939.0200
2022-11-22T01:24:22.708Z,939.0200
2022-11-22T01:24:33.784Z,939.0200
2022-11-22T01:24:44.833Z,939.0400
2022-11-22T01:24:55.975Z,939.0200
2022-11-22T01:25:06.980Z,939.0400
2022-11-22T01:25:18.044Z,939.0400
2022-11-22T01:25:29.104Z,939.0400
2022-11-22T01:25:40.196Z,939.0400
2022-11-22T01:25:51.266Z,939.0400
2022-11-22T01:26:02.337Z,939.0400
2022-11-22T01:26:13.407Z,939.0400
2022-11-22T01:26:24.484Z,939.0200
2022-11-22T01:26:35.588Z,939.0200
2022-11-22T01:26:46.644Z,939.0200
2022-11-22T01:26:57.704Z,939.0200
2022-11-22T01:27:08.784Z,939.0400
2022-11-22T01:27:19.864Z,939.0400
2022-11-22T01:27:30.912Z,939.0200
2022-11-22T01:27:41.985Z,939.0200
2022-11-22T01:27:53.043Z,939.0200
2022-11-22T01:28:04.118Z,939.0200
2022-11-22T01:28:15.183Z,939.0200
2022-11-22T01:28:26.236Z,939.0000
2022-11-22T01:28:37.304Z,939.0000
2022-11-22T01:28:48.366Z,939.0000
2022-11-22T01:28:59.413Z,938.9800
2022-11-22T01:29:10.477Z,939.0200
2022-11-22T01:29:21.552Z,939.0200
2022-11-22T01:29:32.870Z,938.9800
2022-11-22T01:29:44.075Z,938.9800
2022-11-22T01:29:55.108Z,939.0000
2022-11-22T01:30:06.173Z,939.0000
2022-11-22T01:30:17.233Z,938.9600
2022-11-22T01:30:28.309Z,939.0000
2022-11-22T01:30:39.377Z,939.0000
2022-11-22T01:30:50.493Z,939.0000
2022-11-22T01:31:01.543Z,938.9800
2022-11-22T01:31:12.617Z,938.9800
2022-11-22T01:31:23.678Z,939.0000
2022-11-22T01:31:34.770Z,939.0000
2022-11-22T01:31:45.834Z,939.0200
2022-11-22T01:31:56.912Z,939.0000
2022-11-22T01:32:07.993Z,939.0000
2022-11-22T01:32:19.056Z,939.0200
2022-11-22T01:32:30.106Z,939.0000
2022-11-22T01:32:41.186Z,939.0000
2022-11-22T01:32:52.264Z,939.0200
2022-11-22T01:33:03.343Z,939.0200
2022-11-22T01:33:14.407Z,939.0200
2022-11-22T01:33:25.473Z,939.0200
2022-11-22T01:33:36.542Z,939.0400
2022-11-22T01:33:47.614Z,939.0400
2022-11-22T01:33:58.675Z,939.0200
2022-11-22T01:34:09.753Z,939.0400
2022-11-22T01:34:20.831Z,939.0400
2022-11-22T01:34:31.893Z,939.0400
2022-11-22T01:34:42.927Z,939.0400
2022-11-22T01:34:53.993Z,939.0600
2022-11-22T01:35:05.053Z,939.0600
2022-11-22T01:35:16.117Z,939.0800
2022-11-22T01:35:27.187Z,939.1000
2022-11-22T01:35:38.273Z,939.1000
2022-11-22T01:35:49.314Z,939.0800
2022-11-22T01:36:00.479Z,939.1000
2022-11-22T01:36:11.543Z,939.1000
2022-11-22T01:36:22.613Z,939.1100
2022-11-22T01:36:33.690Z,939.1000
2022-11-22T01:36:44.777Z,939.1100
2022-11-22T01:36:55.832Z,939.1000
2022-11-22T01:37:06.904Z,939.1100
2022-11-22T01:37:17.964Z,939.1000
2022-11-22T01:37:29.023Z,939.1000
2022-11-22T01:37:40.093Z,939.1100
2022-11-22T01:37:51.156Z,939.1100
2022-11-22T01:38:02.221Z,939.1100
2022-11-22T01:38:13.283Z,939.1000
2022-11-22T01:38:24.335Z,939.1000
2022-11-22T01:38:35.409Z,939.1000
2022-11-22T01:38:46.475Z,939.1100
2022-11-22T01:38:57.522Z,939.0800
2022-11-22T01:39:08.598Z,939.0800
2022-11-22T01:39:19.663Z,939.0800
2022-11-22T01:39:31.000Z,939.0800
2022-11-22T01:39:42.374Z,939.0800
2022-11-22T01:39:53.446Z,939.0800
2022-11-22T01:40:04.531Z,939.0800
2022-11-22T01:40:15.575Z,939.0600
2022-11-22T01:40:26.633Z,939.0800
2022-11-22T01:40:37.706Z,939.0800
2022-11-22T01:40:48.787Z,939.0600
2022-11-22T01:40:59.871Z,939.0600
2022-11-22T01:41:10.987Z,939.0400
2022-11-22T01:41:22.060Z,939.0600
2022-11-22T01:41:33.113Z,939.0600
2022-11-22T01:41:44.201Z,939.0600
2022-11-22T01:41:55.253Z,939.0600
2022-11-22T01:42:06.347Z,939.0600
2022-11-22T01:42:17.424Z,939.0800
2022-11-22T01:42:28.478Z,939.0600
2022-11-22T01:42:39.547Z,939.0600
2022-11-22T01:42:50.597Z,939.0600
2022-11-22T01:43:01.675Z,939.0600
2022-11-22T01:43:12.731Z,939.0400
2022-11-22T01:43:23.804Z,939.0400
2022-11-22T01:43:34.858Z,939.0600
2022-11-22T01:43:45.957Z,939.0600
2022-11-22T01:43:57.024Z,939.0600
2022-11-22T01:44:08.093Z,939.0600
2022-11-22T01:44:19.156Z,939.0600
2022-11-22T01:44:30.253Z,939.0400
2022-11-22T01:44:41.311Z,939.0600
2022-11-22T01:44:52.363Z,939.0600
2022-11-22T01:45:03.420Z,939.0600
2022-11-22T01:45:14.504Z,939.0600
2022-11-22T01:45:25.573Z,939.0600
2022-11-22T01:45:36.643Z,939.0800
2022-11-22T01:45:47.703Z,939.1000
2022-11-22T01:45:58.766Z,939.0800
2022-11-22T01:46:09.844Z,939.0800
2022-11-22T01:46:20.969Z,939.0800
2022-11-22T01:46:32.037Z,939.1000
2022-11-22T01:46:43.146Z,939.0800
2022-11-22T01:46:54.217Z,939.1000
2022-11-22T01:47:05.305Z,939.0800
2022-11-22T01:47:16.346Z,939.0800
2022-11-22T01:47:27.397Z,939.0800
2022-11-22T01:47:38.461Z,939.0800
2022-11-22T01:47:49.546Z,939.0600
2022-11-22T01:48:00.607Z,939.0600
2022-11-22T01:48:11.683Z,939.0800
2022-11-22T01:48:22.747Z,939.0800
2022-11-22T01:48:33.807Z,939.0600
2022-11-22T01:48:44.839Z,939.0800
2022-11-22T01:48:55.903Z,939.0800
2022-11-22T01:49:06.957Z,939.0800
2022-11-22T01:49:18.026Z,939.0600
2022-11-22T01:49:29.349Z,939.0800
2022-11-22T01:49:40.560Z,939.0800
2022-11-22T01:49:51.616Z,939.0600
2022-11-22T01:50:02.710Z,939.0800
2022-11-22T01:50:13.757Z,939.0800
2022-11-22T01:50:24.833Z,939.0800
2022-11-22T01:50:35.875Z,939.1000
2022-11-22T01:50:46.956Z,939.1000
2022-11-22T01:50:58.017Z,939.1000
2022-11-22T01:51:09.093Z,939.1000
2022-11-22T01:51:20.149Z,939.0800
2022-11-22T01:51:31.253Z,939.1000
2022-11-22T01:51:42.366Z,939.1100
2022-11-22T01:51:53.441Z,939.1000
2022-11-22T01:52:04.496Z,939.1100
2022-11-22T01:52:15.568Z,939.1000
2022-11-22T01:52:26.627Z,939.1000
2022-11-22T01:52:37.719Z,939.1100
2022-11-22T01:52:48.795Z,939.1100
2022-11-22T01:52:59.864Z,939.1100
2022-11-22T01:53:10.928Z,939.1100
2022-11-22T01:53:21.985Z,939.1100
2022-11-22T01:53:33.049Z,939.1100
2022-11-22T01:53:44.141Z,939.1100
2022-11-22T01:53:55.196Z,939.1100
2022-11-22T01:54:06.271Z,939.1300
2022-11-22T01:54:17.325Z,939.1300
2022-11-22T01:54:28.393Z,939.1000
2022-11-22T01:54:39.463Z,939.1100
2022-11-22T01:54:50.531Z,939.1100
2022-11-22T01:55:01.665Z,939.1100
2022-11-22T01:55:12.760Z,939.1100
2022-11-22T01:55:23.797Z,939.1000
2022-11-22T01:55:34.839Z,939.1000
2022-11-22T01:55:45.906Z,939.0800
2022-11-22T01:55:56.978Z,939.1000
2022-11-22T01:56:08.032Z,939.1000
2022-11-22T01:56:19.092Z,939.0800
2022-11-22T01:56:30.153Z,939.0800
2022-11-22T01:56:41.237Z,939.0800
2022-11-22T01:56:52.282Z,939.1000
2022-11-22T01:57:03.343Z,939.0600
2022-11-22T01:57:14.412Z,939.0600
2022-11-22T01:57:25.466Z,939.0800
2022-11-22T01:57:36.537Z,939.1000
2022-11-22T01:57:48.427Z,939.0800
2022-11-22T01:57:59.493Z,939.0800
2022-11-22T01:58:10.546Z,939.0600
2022-11-22T01:58:21.630Z,939.0600
2022-11-22T01:58:32.673Z,939.0600
2022-11-22T01:58:43.713Z,939.0800
2022-11-22T01:58:54.766Z,939.0800
2022-11-22T01:59:05.828Z,939.0800
2022-11-22T01:59:16.924Z,939.0600
2022-11-22T01:59:28.458Z,939.0800
2022-11-22T01:59:39.896Z,939.0800
2022-11-22T01:59:50.976Z,939.0800
2022-11-22T02:00:02.026Z,939.0800
2022-11-22T02:00:13.089Z,939.0800
2022-11-22T02:00:24.158Z,939.0800
2022-11-22T02:00:35.231Z,939.1000
2022-11-22T02:00:46.388Z,939.1000
2022-11-22T02:00:57.571Z,939.1000
2022-11-22T02:01:08.728Z,939.1100
2022-11-22T02:01:19.947Z,939.0600
2022-11-22T02:01:31.152Z,939.0800
2022-11-22T02:01:42.293Z,939.0800
2022-11-22T02:01:53.394Z,939.1000
2022-11-22T02:02:04.446Z,939.0800
2022-11-22T02:02:15.513Z,939.0600
2022-11-22T02:02:26.583Z,939.1000
2022-11-22T02:02:37.651Z,939.1000
2022-11-22T02:02:48.713Z,939.1100
2022-11-22T02:02:59.782Z,939.1000
2022-11-22T02:03:10.856Z,939.0800
2022-11-22T02:03:21.967Z,939.1000
2022-11-22T02:03:33.012Z,939.1100
2022-11-22T02:03:44.073Z,939.1000
2022-11-22T02:03:55.127Z,939.1000
2022-11-22T02:04:06.201Z,939.1000
2022-11-22T02:04:17.263Z,939.1100
2022-11-22T02:04:28.338Z,939.1000
2022-11-22T02:04:39.387Z,939.1000
2022-11-22T02:04:50.472Z,939.1100
2022-11-22T02:05:01.526Z,939.1100
2022-11-22T02:05:12.604Z,939.1000
2022-11-22T02:05:23.656Z,939.1000
2022-11-22T02:05:34.723Z,939.1000
2022-11-22T02:05:45.784Z,939.1100
2022-11-22T02:05:56.844Z,939.1000
2022-11-22T02:06:07.899Z,939.1000
2022-11-22T02:06:18.987Z,939.1000
2022-11-22T02:06:30.070Z,939.0800
2022-11-22T02:06:41.172Z,939.1000
2022-11-22T02:06:52.300Z,939.0800
2022-11-22T02:07:03.375Z,939.0800
2022-11-22T02:07:14.480Z,939.0800
2022-11-22T02:07:25.580Z,939.0600
2022-11-22T02:07:36.663Z,939.1000
2022-11-22T02:07:47.805Z,939.0800
2022-11-22T02:07:58.847Z,939.0800
2022-11-22T02:08:09.912Z,939.0800
2022-11-22T02:08:20.966Z,939.0600
2022-11-22T02:08:32.052Z,939.0600
2022-11-22T02:08:43.116Z,939.0600
2022-11-22T02:08:54.186Z,939.0800
2022-11-22T02:09:05.277Z,939.0800
2022-11-22T02:09:16.366Z,939.0600
2022-11-22T02:09:27.967Z,939.0600
2022-11-22T02:09:39.274Z,939.0600
2022-11-22T02:09:50.330Z,939.0600
2022-11-22T02:10:01.396Z,939.0600
2022-11-22T02:10:12.482Z,939.0600